5 day graph

You are here

Hive Data

Page: 1 of 16645  Records: 998690

Row Date Time Hive Temp Hive Humidity Outside Temp Outside Humidity Bottom Board Temp Outside Wall Temp Electronics Temp Light Levels inHG Fan Heat Cover Notes
Clear Sorted By: Electronics Temp descending, Outside Temp ascending, Bottom Board Temp ascending, Row descending
View 119585 Aug 11 2014 4:26:27pm 99.32 31 106.7 24 100.85 107.6 120.2 873 29.12 1 0 0 NA
View 119584 Aug 11 2014 4:25:26pm 99.32 32 107.06 25 100.85 108.05 120.2 871 29.12 1 0 0 NA
View 119583 Aug 11 2014 4:24:25pm 99.5 31 107.42 23 100.85 108.5 120.2 898 29.12 1 0 0 NA
View 119582 Aug 11 2014 4:23:23pm 99.5 32 107.78 23 100.85 108.5 120.2 894 29.12 1 0 0 NA
View 119581 Aug 11 2014 4:22:23pm 99.68 34 108.14 23 100.85 108.95 120.2 897 29.12 1 0 0 NA
View 119580 Aug 11 2014 4:21:22pm 99.68 32 108.68 23 100.85 109.4 120.2 884 29.12 1 0 0 NA
View 119579 Aug 11 2014 4:20:21pm 99.68 32 109.04 24 100.85 109.85 120.2 909 29.12 1 0 0 NA
View 119578 Aug 11 2014 4:19:19pm 99.68 32 109.04 24 100.85 110.3 120.2 909 29.12 1 0 0 NA
View 119577 Aug 11 2014 4:18:19pm 99.68 33 109.4 26 100.85 110.75 120.2 920 29.12 1 0 0 NA
View 119576 Aug 11 2014 4:17:18pm 99.68 33 109.58 25 100.85 111.2 120.2 921 29.12 1 0 0 NA
View 119575 Aug 11 2014 4:16:17pm 99.68 34 109.76 25 100.85 111.2 120.2 927 29.12 1 0 0 NA
View 119574 Aug 11 2014 4:15:15pm 99.68 32 109.94 24 100.85 111.65 120.2 909 29.12 1 0 0 NA
View 119573 Aug 11 2014 4:14:14pm 99.68 35 109.94 25 100.85 112.1 120.2 931 29.12 1 0 0 NA
View 119572 Aug 11 2014 4:13:14pm 99.68 34 109.94 24 100.85 112.1 120.2 939 29.12 1 0 0 NA
View 119571 Aug 11 2014 4:12:13pm 99.68 34 109.94 24 100.85 112.1 120.2 927 29.12 1 0 0 NA
View 119570 Aug 11 2014 4:11:11pm 99.68 33 110.12 24 100.85 112.1 120.2 938 29.12 1 0 0 NA
View 119557 Aug 11 2014 3:57:58pm 99.14 31 110.3 23 100.4 113.45 120.2 947 29.12 1 0 0 NA
View 119569 Aug 11 2014 4:10:10pm 99.68 32 110.3 23 100.85 112.1 120.2 933 29.12 1 0 0 NA
View 119559 Aug 11 2014 3:59:59pm 99.32 31 110.48 23 100.85 113.45 120.2 949 29.12 1 0 0 NA
View 119558 Aug 11 2014 3:59:00pm 99.32 31 110.48 22 100.85 113 120.2 952 29.12 1 0 0 NA
View 119568 Aug 11 2014 4:09:10pm 99.68 32 110.66 23 100.85 112.55 120.2 936 29.12 1 0 0 NA
View 119560 Aug 11 2014 4:01:01pm 99.32 32 110.66 24 100.85 113.9 120.2 951 29.12 1 0 0 NA
View 119567 Aug 11 2014 4:08:09pm 99.68 32 110.84 23 100.85 112.55 120.2 943 29.12 1 0 0 NA
View 119562 Aug 11 2014 4:03:04pm 99.5 31 110.84 23 100.85 113.9 120.2 946 29.12 1 0 0 NA
View 119561 Aug 11 2014 4:02:02pm 99.32 30 110.84 24 100.85 113.9 120.2 951 29.13 1 0 0 NA
View 119566 Aug 11 2014 4:07:07pm 99.68 32 111.02 23 100.85 113 120.2 923 29.12 1 0 0 NA
View 119564 Aug 11 2014 4:05:05pm 99.5 31 111.02 23 100.85 113.9 120.2 949 29.12 1 0 0 NA
View 119563 Aug 11 2014 4:04:05pm 99.5 33 111.02 25 100.85 113.9 120.2 950 29.13 1 0 0 NA
View 119565 Aug 11 2014 4:06:06pm 99.5 31 111.2 23 100.85 113.45 120.2 947 29.12 1 0 0 NA
View 109775 Aug 4 2014 5:26:56pm 97.52 32 101.12 26 99.05 100.4 118.4 939 29.2 1 0 0 NA
View 109774 Aug 4 2014 5:25:55pm 97.52 35 101.12 25 99.05 100.4 118.4 940 29.2 1 0 0 NA
View 109773 Aug 4 2014 5:24:55pm 97.52 31 101.12 25 99.05 100.85 118.4 940 29.2 1 0 0 NA
View 109772 Aug 4 2014 5:23:54pm 97.52 32 101.3 25 99.05 100.85 118.4 939 29.2 1 0 0 NA
View 109771 Aug 4 2014 5:22:52pm 97.34 30 101.48 24 99.5 100.85 118.4 941 29.21 1 0 0 NA
View 109769 Aug 4 2014 5:20:50pm 97.34 31 101.66 25 99.05 101.3 118.4 941 29.2 1 0 0 NA
View 109767 Aug 4 2014 5:18:48pm 97.34 31 101.66 26 99.05 101.75 118.4 942 29.2 1 0 0 NA
View 109770 Aug 4 2014 5:21:51pm 97.34 30 101.66 24 99.5 101.3 118.4 941 29.2 1 0 0 NA
View 109768 Aug 4 2014 5:19:50pm 97.34 31 101.84 25 99.05 101.75 118.4 942 29.2 1 0 0 NA
View 109766 Aug 4 2014 5:17:47pm 97.34 31 101.84 25 99.5 101.75 118.4 942 29.2 1 0 0 NA
View 109765 Aug 4 2014 5:16:46pm 97.34 31 101.84 24 99.5 102.2 118.4 942 29.2 1 0 0 NA
View 109760 Aug 4 2014 5:11:40pm 97.34 30 102.02 25 99.05 103.1 118.4 944 29.2 1 0 0 NA
View 109759 Aug 4 2014 5:10:39pm 97.34 31 102.02 25 99.05 103.1 118.4 944 29.2 1 0 0 NA
View 109758 Aug 4 2014 5:09:39pm 97.34 31 102.02 25 99.05 103.1 118.4 945 29.2 1 0 0 NA
View 109757 Aug 4 2014 5:08:38pm 97.34 31 102.02 25 99.05 103.55 118.4 945 29.2 1 0 0 NA
View 109756 Aug 4 2014 5:07:37pm 97.34 32 102.02 25 99.05 103.55 118.4 945 29.2 1 0 0 NA
View 109755 Aug 4 2014 5:06:35pm 97.34 32 102.02 24 99.05 103.55 118.4 946 29.2 1 0 0 NA
View 109764 Aug 4 2014 5:15:44pm 97.34 30 102.02 24 99.5 102.2 118.4 943 29.2 1 0 0 NA
View 109763 Aug 4 2014 5:14:44pm 97.34 31 102.2 25 99.05 102.2 118.4 943 29.21 1 0 0 NA
View 109761 Aug 4 2014 5:12:42pm 97.34 30 102.2 25 99.05 102.65 118.4 943 29.2 1 0 0 NA
View 109762 Aug 4 2014 5:13:43pm 97.34 30 102.38 25 99.05 102.65 118.4 943 29.2 1 0 0 NA
View 109754 Aug 4 2014 5:05:34pm 97.34 31 102.38 24 99.05 103.55 118.4 946 29.2 1 0 0 NA
View 109751 Aug 4 2014 5:02:31pm 97.34 31 102.38 25 99.05 104 118.4 947 29.2 1 0 0 NA
View 109753 Aug 4 2014 5:04:34pm 97.34 31 102.56 24 99.05 103.55 118.4 946 29.2 1 0 0 NA
View 109752 Aug 4 2014 5:03:33pm 97.34 30 102.56 24 99.05 104 118.4 946 29.2 1 0 0 NA
View 109750 Aug 4 2014 5:01:30pm 97.34 31 102.56 25 99.05 104 118.4 946 29.21 1 0 0 NA
View 109749 Aug 4 2014 5:00:29pm 97.34 30 102.56 24 99.05 103.55 118.4 947 29.2 1 0 0 NA
View 109748 Aug 4 2014 4:59:27pm 97.52 30 102.74 23 99.5 103.55 118.4 948 29.2 1 0 0 NA
View 109747 Aug 4 2014 4:58:28pm 97.52 30 102.92 23 99.5 103.55 118.4 947 29.21 1 0 0 NA
View 109745 Aug 4 2014 4:56:25pm 97.34 30 103.1 23 99.05 104.45 118.4 948 29.2 1 0 0 NA
View 109746 Aug 4 2014 4:57:26pm 97.52 31 103.1 23 99.5 104 118.4 947 29.21 1 0 0 NA